sensor_id;sensor_type;location;lat;lon;timestamp;temperature;humidity
22426;DHT22;11380;50.822;15.790;2023-06-04T00:00:14;5.90;1.00
22426;DHT22;11380;50.822;15.790;2023-06-04T00:05:22;5.80;1.00
22426;DHT22;11380;50.822;15.790;2023-06-04T00:10:30;6.10;1.00
22426;DHT22;11380;50.822;15.790;2023-06-04T00:15:38;5.90;1.00
22426;DHT22;11380;50.822;15.790;2023-06-04T00:20:46;6.10;1.00
22426;DHT22;11380;50.822;15.790;2023-06-04T00:25:54;5.90;1.00
22426;DHT22;11380;50.822;15.790;2023-06-04T00:31:04;6.10;1.00
22426;DHT22;11380;50.822;15.790;2023-06-04T00:36:12;6.10;1.00
22426;DHT22;11380;50.822;15.790;2023-06-04T00:41:19;6.10;1.00
22426;DHT22;11380;50.822;15.790;2023-06-04T00:46:27;6.00;1.00
22426;DHT22;11380;50.822;15.790;2023-06-04T00:51:36;6.00;1.00
22426;DHT22;11380;50.822;15.790;2023-06-04T00:56:44;6.20;1.00
22426;DHT22;11380;50.822;15.790;2023-06-04T01:07:06;5.90;1.00
22426;DHT22;11380;50.822;15.790;2023-06-04T01:12:16;6.10;1.00
22426;DHT22;11380;50.822;15.790;2023-06-04T01:17:54;5.90;1.00
22426;DHT22;11380;50.822;15.790;2023-06-04T01:28:06;6.10;1.00
22426;DHT22;11380;50.822;15.790;2023-06-04T01:33:17;5.80;1.00
22426;DHT22;11380;50.822;15.790;2023-06-04T01:38:27;6.00;1.00
22426;DHT22;11380;50.822;15.790;2023-06-04T01:43:34;5.70;1.00
22426;DHT22;11380;50.822;15.790;2023-06-04T01:48:41;5.50;1.00
22426;DHT22;11380;50.822;15.790;2023-06-04T01:53:48;5.30;1.00
22426;DHT22;11380;50.822;15.790;2023-06-04T01:58:56;5.20;1.00
22426;DHT22;11380;50.822;15.790;2023-06-04T02:04:03;5.20;1.00
22426;DHT22;11380;50.822;15.790;2023-06-04T02:09:11;5.30;1.00
22426;DHT22;11380;50.822;15.790;2023-06-04T02:14:26;5.10;1.00
22426;DHT22;11380;50.822;15.790;2023-06-04T02:19:32;5.10;1.00
22426;DHT22;11380;50.822;15.790;2023-06-04T02:24:42;5.00;1.00
22426;DHT22;11380;50.822;15.790;2023-06-04T02:29:49;4.70;1.00
22426;DHT22;11380;50.822;15.790;2023-06-04T02:34:56;4.70;1.00
22426;DHT22;11380;50.822;15.790;2023-06-04T02:40:03;4.60;1.00
22426;DHT22;11380;50.822;15.790;2023-06-04T02:45:12;4.80;1.00
22426;DHT22;11380;50.822;15.790;2023-06-04T02:50:19;4.90;1.00
22426;DHT22;11380;50.822;15.790;2023-06-04T02:55:26;4.80;1.00
22426;DHT22;11380;50.822;15.790;2023-06-04T03:00:34;4.80;1.00
22426;DHT22;11380;50.822;15.790;2023-06-04T03:05:42;4.80;1.00
22426;DHT22;11380;50.822;15.790;2023-06-04T03:10:50;5.10;1.00
22426;DHT22;11380;50.822;15.790;2023-06-04T03:15:58;4.80;1.00
22426;DHT22;11380;50.822;15.790;2023-06-04T03:21:09;5.10;1.00
22426;DHT22;11380;50.822;15.790;2023-06-04T03:26:19;4.90;1.00
22426;DHT22;11380;50.822;15.790;2023-06-04T03:31:26;5.00;1.00
22426;DHT22;11380;50.822;15.790;2023-06-04T03:36:33;5.40;1.00
22426;DHT22;11380;50.822;15.790;2023-06-04T03:41:43;5.50;1.00
22426;DHT22;11380;50.822;15.790;2023-06-04T03:46:51;6.10;1.00
22426;DHT22;11380;50.822;15.790;2023-06-04T03:51:59;6.40;1.00
22426;DHT22;11380;50.822;15.790;2023-06-04T03:57:07;6.70;1.00
22426;DHT22;11380;50.822;15.790;2023-06-04T04:02:14;6.80;1.00
22426;DHT22;11380;50.822;15.790;2023-06-04T04:07:24;6.90;1.00
22426;DHT22;11380;50.822;15.790;2023-06-04T04:12:30;7.00;1.00
22426;DHT22;11380;50.822;15.790;2023-06-04T04:17:38;7.30;1.00
22426;DHT22;11380;50.822;15.790;2023-06-04T04:22:45;7.20;1.00
22426;DHT22;11380;50.822;15.790;2023-06-04T04:27:53;7.50;1.00
22426;DHT22;11380;50.822;15.790;2023-06-04T04:33:01;8.00;1.00
22426;DHT22;11380;50.822;15.790;2023-06-04T04:38:11;8.20;1.00
22426;DHT22;11380;50.822;15.790;2023-06-04T04:43:33;8.70;1.00
22426;DHT22;11380;50.822;15.790;2023-06-04T04:48:42;8.90;1.00
22426;DHT22;11380;50.822;15.790;2023-06-04T04:53:52;9.30;1.00
22426;DHT22;11380;50.822;15.790;2023-06-04T04:58:59;9.50;1.00
22426;DHT22;11380;50.822;15.790;2023-06-04T05:04:08;10.10;1.00
22426;DHT22;11380;50.822;15.790;2023-06-04T05:09:15;10.20;1.00
22426;DHT22;11380;50.822;15.790;2023-06-04T05:14:22;10.50;1.00
22426;DHT22;11380;50.822;15.790;2023-06-04T05:19:29;10.70;1.00
22426;DHT22;11380;50.822;15.790;2023-06-04T05:24:37;11.00;1.00
22426;DHT22;11380;50.822;15.790;2023-06-04T05:29:45;11.50;1.00
22426;DHT22;11380;50.822;15.790;2023-06-04T05:34:52;11.80;1.00
22426;DHT22;11380;50.822;15.790;2023-06-04T05:40:01;12.00;1.00
22426;DHT22;11380;50.822;15.790;2023-06-04T05:45:09;12.30;1.00
22426;DHT22;11380;50.822;15.790;2023-06-04T05:50:16;12.60;1.00
22426;DHT22;11380;50.822;15.790;2023-06-04T05:55:23;12.70;1.00
22426;DHT22;11380;50.822;15.790;2023-06-04T06:00:30;13.30;1.00
22426;DHT22;11380;50.822;15.790;2023-06-04T06:05:37;13.60;1.00
22426;DHT22;11380;50.822;15.790;2023-06-04T06:10:44;13.80;1.00
22426;DHT22;11380;50.822;15.790;2023-06-04T06:15:50;14.10;1.00
22426;DHT22;11380;50.822;15.790;2023-06-04T06:20:57;14.40;1.00
22426;DHT22;11380;50.822;15.790;2023-06-04T06:26:05;14.80;1.00
22426;DHT22;11380;50.822;15.790;2023-06-04T06:31:12;15.10;1.00
22426;DHT22;11380;50.822;15.790;2023-06-04T06:36:19;15.10;1.00
22426;DHT22;11380;50.822;15.790;2023-06-04T06:41:26;15.70;1.00
22426;DHT22;11380;50.822;15.790;2023-06-04T06:46:35;16.00;1.00
22426;DHT22;11380;50.822;15.790;2023-06-04T06:51:44;16.30;1.00
22426;DHT22;11380;50.822;15.790;2023-06-04T06:56:50;16.50;1.00
22426;DHT22;11380;50.822;15.790;2023-06-04T07:01:57;16.80;1.00
22426;DHT22;11380;50.822;15.790;2023-06-04T07:07:05;16.90;1.00
22426;DHT22;11380;50.822;15.790;2023-06-04T07:12:12;17.50;1.00
22426;DHT22;11380;50.822;15.790;2023-06-04T07:17:20;17.90;1.00
22426;DHT22;11380;50.822;15.790;2023-06-04T07:22:27;17.90;1.00
22426;DHT22;11380;50.822;15.790;2023-06-04T07:27:34;17.50;1.00
22426;DHT22;11380;50.822;15.790;2023-06-04T07:32:47;17.90;1.00
22426;DHT22;11380;50.822;15.790;2023-06-04T07:37:57;17.90;1.00
22426;DHT22;11380;50.822;15.790;2023-06-04T07:43:04;18.20;1.00
22426;DHT22;11380;50.822;15.790;2023-06-04T07:48:11;18.20;1.00
22426;DHT22;11380;50.822;15.790;2023-06-04T07:53:18;18.30;1.00
22426;DHT22;11380;50.822;15.790;2023-06-04T07:58:26;18.70;1.00
22426;DHT22;11380;50.822;15.790;2023-06-04T08:03:32;18.50;1.00
22426;DHT22;11380;50.822;15.790;2023-06-04T08:08:44;18.30;1.00
22426;DHT22;11380;50.822;15.790;2023-06-04T08:13:54;18.90;1.00
22426;DHT22;11380;50.822;15.790;2023-06-04T08:19:01;17.80;1.00
22426;DHT22;11380;50.822;15.790;2023-06-04T08:24:09;18.10;1.00
22426;DHT22;11380;50.822;15.790;2023-06-04T08:29:16;19.20;1.00
22426;DHT22;11380;50.822;15.790;2023-06-04T08:34:23;18.50;1.00
22426;DHT22;11380;50.822;15.790;2023-06-04T08:39:30;19.00;1.00
22426;DHT22;11380;50.822;15.790;2023-06-04T08:44:39;19.60;1.00
22426;DHT22;11380;50.822;15.790;2023-06-04T08:49:50;19.00;1.00
22426;DHT22;11380;50.822;15.790;2023-06-04T08:54:58;19.30;1.00
22426;DHT22;11380;50.822;15.790;2023-06-04T09:00:06;19.70;1.00
22426;DHT22;11380;50.822;15.790;2023-06-04T09:05:22;19.40;1.00
22426;DHT22;11380;50.822;15.790;2023-06-04T09:10:30;19.60;1.00
22426;DHT22;11380;50.822;15.790;2023-06-04T09:15:39;19.70;1.00
22426;DHT22;11380;50.822;15.790;2023-06-04T09:20:46;19.00;1.00
22426;DHT22;11380;50.822;15.790;2023-06-04T09:25:54;19.30;1.00
22426;DHT22;11380;50.822;15.790;2023-06-04T09:31:01;20.00;1.00
22426;DHT22;11380;50.822;15.790;2023-06-04T09:36:10;19.40;1.00
22426;DHT22;11380;50.822;15.790;2023-06-04T09:41:18;20.20;1.00
22426;DHT22;11380;50.822;15.790;2023-06-04T09:46:28;20.70;1.00
22426;DHT22;11380;50.822;15.790;2023-06-04T09:51:35;20.50;1.00
22426;DHT22;11380;50.822;15.790;2023-06-04T09:56:43;20.70;1.00
22426;DHT22;11380;50.822;15.790;2023-06-04T10:01:50;21.00;1.00
22426;DHT22;11380;50.822;15.790;2023-06-04T10:06:59;21.00;1.00
22426;DHT22;11380;50.822;15.790;2023-06-04T10:12:09;21.00;1.00
22426;DHT22;11380;50.822;15.790;2023-06-04T10:17:17;20.90;1.00
22426;DHT22;11380;50.822;15.790;2023-06-04T10:22:29;20.60;1.00
22426;DHT22;11380;50.822;15.790;2023-06-04T10:27:37;21.10;1.00
22426;DHT22;11380;50.822;15.790;2023-06-04T10:32:46;21.10;1.00
22426;DHT22;11380;50.822;15.790;2023-06-04T10:38:03;20.60;1.00
22426;DHT22;11380;50.822;15.790;2023-06-04T10:43:15;20.40;1.00
22426;DHT22;11380;50.822;15.790;2023-06-04T10:48:23;21.70;1.00
22426;DHT22;11380;50.822;15.790;2023-06-04T10:53:36;20.80;1.00
22426;DHT22;11380;50.822;15.790;2023-06-04T10:58:45;21.00;1.00
22426;DHT22;11380;50.822;15.790;2023-06-04T11:03:53;20.40;1.00
22426;DHT22;11380;50.822;15.790;2023-06-04T11:09:04;20.60;1.00
22426;DHT22;11380;50.822;15.790;2023-06-04T11:14:13;21.70;1.00
22426;DHT22;11380;50.822;15.790;2023-06-04T11:19:30;21.00;1.00
22426;DHT22;11380;50.822;15.790;2023-06-04T11:24:35;20.50;1.00
22426;DHT22;11380;50.822;15.790;2023-06-04T11:29:42;21.30;1.00
22426;DHT22;11380;50.822;15.790;2023-06-04T11:34:50;21.30;1.00
22426;DHT22;11380;50.822;15.790;2023-06-04T11:39:57;21.00;1.00
22426;DHT22;11380;50.822;15.790;2023-06-04T11:45:06;21.60;1.00
22426;DHT22;11380;50.822;15.790;2023-06-04T11:50:15;21.70;1.00
22426;DHT22;11380;50.822;15.790;2023-06-04T12:00:27;22.80;1.00
22426;DHT22;11380;50.822;15.790;2023-06-04T12:05:35;22.20;1.00
22426;DHT22;11380;50.822;15.790;2023-06-04T12:10:44;21.50;1.00
22426;DHT22;11380;50.822;15.790;2023-06-04T12:15:52;21.30;1.00
22426;DHT22;11380;50.822;15.790;2023-06-04T12:21:01;22.10;1.00
22426;DHT22;11380;50.822;15.790;2023-06-04T12:26:21;22.30;1.00
22426;DHT22;11380;50.822;15.790;2023-06-04T12:31:35;21.80;1.00
22426;DHT22;11380;50.822;15.790;2023-06-04T12:36:43;23.00;1.00
22426;DHT22;11380;50.822;15.790;2023-06-04T12:41:50;21.70;1.00
22426;DHT22;11380;50.822;15.790;2023-06-04T12:46:58;22.10;1.00
22426;DHT22;11380;50.822;15.790;2023-06-04T12:52:06;21.90;1.00
22426;DHT22;11380;50.822;15.790;2023-06-04T12:57:13;22.00;1.00
22426;DHT22;11380;50.822;15.790;2023-06-04T13:02:22;22.00;1.00
22426;DHT22;11380;50.822;15.790;2023-06-04T13:07:29;21.80;1.00
22426;DHT22;11380;50.822;15.790;2023-06-04T13:12:37;21.50;1.00
22426;DHT22;11380;50.822;15.790;2023-06-04T13:17:45;21.80;1.00
22426;DHT22;11380;50.822;15.790;2023-06-04T13:22:53;22.20;1.00
22426;DHT22;11380;50.822;15.790;2023-06-04T13:28:07;22.10;1.00
22426;DHT22;11380;50.822;15.790;2023-06-04T13:33:12;22.20;1.00
22426;DHT22;11380;50.822;15.790;2023-06-04T13:38:19;22.00;1.00
22426;DHT22;11380;50.822;15.790;2023-06-04T13:43:26;21.80;1.00
22426;DHT22;11380;50.822;15.790;2023-06-04T13:48:35;22.30;1.00
22426;DHT22;11380;50.822;15.790;2023-06-04T13:53:43;21.50;1.00
22426;DHT22;11380;50.822;15.790;2023-06-04T13:58:50;21.30;1.00
22426;DHT22;11380;50.822;15.790;2023-06-04T14:03:58;21.10;1.00
22426;DHT22;11380;50.822;15.790;2023-06-04T14:09:06;21.20;1.00
22426;DHT22;11380;50.822;15.790;2023-06-04T14:14:14;21.10;1.00
22426;DHT22;11380;50.822;15.790;2023-06-04T14:19:25;21.10;1.00
22426;DHT22;11380;50.822;15.790;2023-06-04T14:24:33;21.10;1.00
22426;DHT22;11380;50.822;15.790;2023-06-04T14:29:40;21.30;1.00
22426;DHT22;11380;50.822;15.790;2023-06-04T14:34:48;21.50;1.00
22426;DHT22;11380;50.822;15.790;2023-06-04T14:39:55;21.40;1.00
22426;DHT22;11380;50.822;15.790;2023-06-04T14:45:02;20.90;1.00
22426;DHT22;11380;50.822;15.790;2023-06-04T14:50:10;20.90;1.00
22426;DHT22;11380;50.822;15.790;2023-06-04T14:55:18;20.80;1.00
22426;DHT22;11380;50.822;15.790;2023-06-04T15:00:25;21.40;1.00
22426;DHT22;11380;50.822;15.790;2023-06-04T15:05:34;21.70;1.00
22426;DHT22;11380;50.822;15.790;2023-06-04T15:10:42;21.20;1.00
22426;DHT22;11380;50.822;15.790;2023-06-04T15:15:50;20.80;1.00
22426;DHT22;11380;50.822;15.790;2023-06-04T15:20:57;21.30;1.00
22426;DHT22;11380;50.822;15.790;2023-06-04T15:26:05;20.70;1.00
22426;DHT22;11380;50.822;15.790;2023-06-04T15:31:12;21.00;1.00
22426;DHT22;11380;50.822;15.790;2023-06-04T15:36:20;21.00;1.00
22426;DHT22;11380;50.822;15.790;2023-06-04T15:41:28;21.00;1.00
22426;DHT22;11380;50.822;15.790;2023-06-04T15:46:35;21.30;1.00
22426;DHT22;11380;50.822;15.790;2023-06-04T15:51:44;20.70;1.00
22426;DHT22;11380;50.822;15.790;2023-06-04T15:56:51;20.80;1.00
22426;DHT22;11380;50.822;15.790;2023-06-04T16:01:59;20.40;1.00
22426;DHT22;11380;50.822;15.790;2023-06-04T16:07:06;20.80;1.00
22426;DHT22;11380;50.822;15.790;2023-06-04T16:12:14;20.60;1.00
22426;DHT22;11380;50.822;15.790;2023-06-04T16:17:22;20.10;1.00
22426;DHT22;11380;50.822;15.790;2023-06-04T16:22:30;20.50;1.00
22426;DHT22;11380;50.822;15.790;2023-06-04T16:27:37;20.10;1.00
22426;DHT22;11380;50.822;15.790;2023-06-04T16:32:47;20.00;1.00
22426;DHT22;11380;50.822;15.790;2023-06-04T16:37:55;19.80;1.00
22426;DHT22;11380;50.822;15.790;2023-06-04T16:43:03;19.90;1.00
22426;DHT22;11380;50.822;15.790;2023-06-04T16:48:12;19.60;1.00
22426;DHT22;11380;50.822;15.790;2023-06-04T16:53:21;19.70;1.00
22426;DHT22;11380;50.822;15.790;2023-06-04T16:58:29;19.80;1.00
22426;DHT22;11380;50.822;15.790;2023-06-04T17:03:38;19.50;1.00
22426;DHT22;11380;50.822;15.790;2023-06-04T17:08:46;19.40;1.00
22426;DHT22;11380;50.822;15.790;2023-06-04T17:13:54;19.10;1.00
22426;DHT22;11380;50.822;15.790;2023-06-04T17:19:01;19.00;1.00
22426;DHT22;11380;50.822;15.790;2023-06-04T17:24:11;18.90;1.00
22426;DHT22;11380;50.822;15.790;2023-06-04T17:29:19;18.80;1.00
22426;DHT22;11380;50.822;15.790;2023-06-04T17:34:27;18.50;1.00
22426;DHT22;11380;50.822;15.790;2023-06-04T17:39:39;18.40;1.00
22426;DHT22;11380;50.822;15.790;2023-06-04T17:44:48;18.20;1.00
22426;DHT22;11380;50.822;15.790;2023-06-04T17:49:55;18.10;1.00
22426;DHT22;11380;50.822;15.790;2023-06-04T17:55:08;18.10;1.00
22426;DHT22;11380;50.822;15.790;2023-06-04T18:00:17;17.80;1.00
22426;DHT22;11380;50.822;15.790;2023-06-04T18:05:24;17.70;1.00
22426;DHT22;11380;50.822;15.790;2023-06-04T18:10:32;17.60;1.00
22426;DHT22;11380;50.822;15.790;2023-06-04T18:15:40;17.30;1.00
22426;DHT22;11380;50.822;15.790;2023-06-04T18:20:48;17.30;1.00
22426;DHT22;11380;50.822;15.790;2023-06-04T18:25:57;17.20;1.00
22426;DHT22;11380;50.822;15.790;2023-06-04T18:31:06;17.10;1.00
22426;DHT22;11380;50.822;15.790;2023-06-04T18:36:14;17.30;1.00
22426;DHT22;11380;50.822;15.790;2023-06-04T18:41:21;17.00;1.00
22426;DHT22;11380;50.822;15.790;2023-06-04T18:46:30;16.70;1.00
22426;DHT22;11380;50.822;15.790;2023-06-04T18:51:38;16.30;1.00
22426;DHT22;11380;50.822;15.790;2023-06-04T18:56:47;16.10;1.00
22426;DHT22;11380;50.822;15.790;2023-06-04T19:01:58;16.10;1.00
22426;DHT22;11380;50.822;15.790;2023-06-04T19:07:06;15.90;1.00
22426;DHT22;11380;50.822;15.790;2023-06-04T19:12:16;15.50;1.00
22426;DHT22;11380;50.822;15.790;2023-06-04T19:17:26;15.50;1.00
22426;DHT22;11380;50.822;15.790;2023-06-04T19:22:35;15.50;1.00
22426;DHT22;11380;50.822;15.790;2023-06-04T19:27:44;15.10;1.00
22426;DHT22;11380;50.822;15.790;2023-06-04T19:32:52;14.80;1.00
22426;DHT22;11380;50.822;15.790;2023-06-04T19:38:00;14.30;1.00
22426;DHT22;11380;50.822;15.790;2023-06-04T19:43:09;14.30;1.00
22426;DHT22;11380;50.822;15.790;2023-06-04T19:48:18;13.30;1.00
22426;DHT22;11380;50.822;15.790;2023-06-04T19:53:26;12.80;1.00
22426;DHT22;11380;50.822;15.790;2023-06-04T19:58:35;13.30;1.00
22426;DHT22;11380;50.822;15.790;2023-06-04T20:03:44;12.80;1.00
22426;DHT22;11380;50.822;15.790;2023-06-04T20:08:53;12.40;1.00
22426;DHT22;11380;50.822;15.790;2023-06-04T20:13:59;12.70;1.00
22426;DHT22;11380;50.822;15.790;2023-06-04T20:19:09;12.50;1.00
22426;DHT22;11380;50.822;15.790;2023-06-04T20:24:22;12.20;1.00
22426;DHT22;11380;50.822;15.790;2023-06-04T20:29:30;12.00;1.00
22426;DHT22;11380;50.822;15.790;2023-06-04T20:34:38;11.70;1.00
22426;DHT22;11380;50.822;15.790;2023-06-04T20:39:45;11.80;1.00
22426;DHT22;11380;50.822;15.790;2023-06-04T20:44:53;11.90;1.00
22426;DHT22;11380;50.822;15.790;2023-06-04T20:50:01;11.40;1.00
22426;DHT22;11380;50.822;15.790;2023-06-04T20:55:10;11.70;1.00
22426;DHT22;11380;50.822;15.790;2023-06-04T21:00:20;11.20;1.00
22426;DHT22;11380;50.822;15.790;2023-06-04T21:05:28;11.60;1.00
22426;DHT22;11380;50.822;15.790;2023-06-04T21:10:39;11.20;1.00
22426;DHT22;11380;50.822;15.790;2023-06-04T21:15:47;11.20;1.00
22426;DHT22;11380;50.822;15.790;2023-06-04T21:20:54;11.20;1.00
22426;DHT22;11380;50.822;15.790;2023-06-04T21:26:03;10.90;1.00
22426;DHT22;11380;50.822;15.790;2023-06-04T21:31:11;10.80;1.00
22426;DHT22;11380;50.822;15.790;2023-06-04T21:36:20;10.70;99.90
22426;DHT22;11380;50.822;15.790;2023-06-04T21:41:30;10.20;1.00
22426;DHT22;11380;50.822;15.790;2023-06-04T21:46:38;10.40;99.90
22426;DHT22;11380;50.822;15.790;2023-06-04T21:51:45;10.60;99.90
22426;DHT22;11380;50.822;15.790;2023-06-04T21:56:52;10.70;1.00
22426;DHT22;11380;50.822;15.790;2023-06-04T22:02:01;10.40;1.00
22426;DHT22;11380;50.822;15.790;2023-06-04T22:07:10;10.50;1.00
22426;DHT22;11380;50.822;15.790;2023-06-04T22:12:17;10.50;1.00
22426;DHT22;11380;50.822;15.790;2023-06-04T22:17:26;10.40;1.00
22426;DHT22;11380;50.822;15.790;2023-06-04T22:22:33;10.50;1.00
22426;DHT22;11380;50.822;15.790;2023-06-04T22:27:40;10.30;1.00
22426;DHT22;11380;50.822;15.790;2023-06-04T22:32:47;10.20;1.00
22426;DHT22;11380;50.822;15.790;2023-06-04T22:37:54;9.90;1.00
22426;DHT22;11380;50.822;15.790;2023-06-04T22:43:02;9.80;1.00
22426;DHT22;11380;50.822;15.790;2023-06-04T22:48:10;9.50;1.00
22426;DHT22;11380;50.822;15.790;2023-06-04T22:53:17;9.60;1.00
22426;DHT22;11380;50.822;15.790;2023-06-04T22:58:25;9.70;1.00
22426;DHT22;11380;50.822;15.790;2023-06-04T23:03:33;9.30;1.00
22426;DHT22;11380;50.822;15.790;2023-06-04T23:08:40;9.30;1.00
22426;DHT22;11380;50.822;15.790;2023-06-04T23:13:48;9.60;1.00
22426;DHT22;11380;50.822;15.790;2023-06-04T23:18:55;9.20;1.00
22426;DHT22;11380;50.822;15.790;2023-06-04T23:24:02;9.20;1.00
22426;DHT22;11380;50.822;15.790;2023-06-04T23:29:10;9.00;1.00
22426;DHT22;11380;50.822;15.790;2023-06-04T23:34:17;8.90;1.00
22426;DHT22;11380;50.822;15.790;2023-06-04T23:39:26;9.10;1.00
22426;DHT22;11380;50.822;15.790;2023-06-04T23:44:33;9.10;1.00
22426;DHT22;11380;50.822;15.790;2023-06-04T23:49:41;9.30;1.00
22426;DHT22;11380;50.822;15.790;2023-06-04T23:54:49;9.10;1.00
22426;DHT22;11380;50.822;15.790;2023-06-04T23:59:56;8.90;1.00
